Brough, United Kingdom
Current Conditions -  °F | °C
As of 8:20 PM on Saturday 25 Oct 2014 (Local Time) from EGNJ Reporting Station
Overcast Overcast  
Wind Chill: 55°   Ceiling: 4500
Heat Index: 55°   Visibility: 6mi
Dew Point: 50°   Wind: 15mph
Humidity: 82%   Direction: 200°SSW
Pressure: 29.97"   Gusts: NA
Location:  53.7°N, 0.58°W
Report Text: EGNJ 251920Z 20013KT 9999 SCT038 OVC045 13/10 Q1015
Loading
Personal Weather Stations






























Interactive Weather Map New forecast layout! Learn more

10-Day Weather Forecast

Advertisements
Track Severe Weather on mobile